Monday, January 26, 2015
22:29 UTC
  |  Log In   |  Register Free
Airport Search:

Corpus Christi International Airport
(KCRP)

FAA data valid effective January 08, 2015 - March 05, 2015 (unless otherwise noted).

 
 
 
 
 
 
 
 
 
 
 
 
 
 

Current Aviation Weather for Corpus Christi International Airport (KCRP)

The most recent METAR observation for KCRP was updated at: 2212
METAR Summary (Translated METAR)
KCRP
262151Z 21006KT 10SM FEW130 SCT200 BKN250 22/06 A3018 RMK AO2 SLP221 T02170061
KRBO
262155Z AUTO 16003KT 10SM CLR 23/02 A3019 RMK AO2 T02250018
(10.1 nm NW from KCRP)
KNGP
262156Z 16008KT 10SM FEW090 SCT180 BKN250 19/04 A3019 RMK AO2 SLP221 T01890044
(12.1 nm SE from KCRP)
TAF Summary (Translated TAF)
KCRP
261728Z 2618/2718 VRB04KT P6SM SCT250 FM270600 24005KT P6SM SCT250
KNGP
(12.1 nm SE from KCRP)
2615/2715 VRB06KT 9999 BKN250 QNH3010INS TEMPO 2617/2623 SCT250 BECMG 2704/2706 23006KT SCT250 QNH3011INS T21/2620Z T09/2712Z FN20043
  Airport Weather Conditions for KCRP

 Current Weather at CRP
71° F
Mostly Cloudy
Southwest winds at 6.9 mph
CRP NOAA Radar

Pressure: 30.18 in
Humidity: 36%
Wind: Southwest at 6.9 MPH (6 KT)
Dew Point: 43.0°F
Visibility: 10.00 mi


Airport Weather Forecast for KCRP

Translated METAR and TAF for KCRP
Translated METAR for KCRP (2229 UTC 26 January 2015)
found at http://aviationweather.gov/adds/metars/
 
METAR text: KCRP 262151Z 21006KT 10SM FEW130 SCT200 BKN250 22/06 A3018 RMK AO2 SLP221 T02170061
Conditions at: KCRP (CORPUS CHRISTI , TX, US) observed 2151 UTC 26 January 2015
Temperature: 21.7°C (71°F)
Dewpoint: 6.1°C (43°F) [RH = 36%]
Pressure (altimeter): 30.18 inches Hg (1022.1 mb)
[Sea-level pressure: 1022.1 mb]
Winds: from the SSW (210 degrees) at 7 MPH (6 knots; 3.1 m/s)
Visibility: 10 or more miles (16+ km)
Ceiling: 25000 feet AGL
Clouds: few clouds at 13000 feet AGL
scattered clouds at 20000 feet AGL
broken clouds at 25000 feet AGL
Weather: no significant weather observed at this time
Translated TAF for KCRP
Forecast for: KCRP (CORPUS CHRISTI , TX, US)
TAF Text: KCRP 261728Z 2618/2718 VRB04KT P6SM SCT250
Forecast period: 1800 UTC 26 January 2015 to 0600 UTC 27 January 2015
Forecast type: FROM: standard forecast or significant change
Winds: variable direction winds at 5 MPH (4 knots; 2.1 m/s)
Visibility: 6 or more miles (10+ km)
Clouds: scattered clouds at 25000 feet AGL
Weather: no significant weather forecast for this period
TAF Text: FM270600 24005KT P6SM SCT250
Forecast period: 0600 to 1800 UTC 27 January 2015
Forecast type: FROM: standard forecast or significant change
Winds: from the WSW (240 degrees) at 6 MPH (5 knots; 2.6 m/s)
Visibility: 6 or more miles (10+ km)
Clouds: scattered clouds at 25000 feet AGL
Weather: no significant weather forecast for this period

Find All Airport Services Find A Hotel Find A Rental Car Find A Golf Course Find A Restaurant $100 Hamburger



FBO's on the Field
FBO Company Facility Photos Services Transportation Aviation Fuel Prices: Prices include tax
Catering Weather Repair Courtesy Rental Type 100LL JetA JetA+ MOGAS 8087
 
Atlantic Aviation

This FBO has not yet been rated
FS:Independent
Last Updated: Jan-26
Login to update fuel prices
SS:
Contact Atlantic AviationMore FBO Information
 
Signature Flight Support

This FBO has not yet been rated
FS:Avfuel
Last Updated: Jan-26
Login to update fuel prices
SS:
Contact Signature Flight SupportMore FBO Information
 
Add another FBO Facility Photos Catering Weather Repair Courtesy Rental Type 100LL JetA JetA+ MOGAS 8087
Services Transportation Aviation Fuel Prices: Prices include tax


model-print
model-print
model-print
model-print